sensor_id;sensor_type;location;lat;lon;timestamp;temperature;humidity
59881;DHT22;45751;51.380;10.326;2023-06-14T00:02:18;17.60;43.60
59881;DHT22;45751;51.380;10.326;2023-06-14T00:04:45;17.60;43.70
59881;DHT22;45751;51.380;10.326;2023-06-14T00:07:14;17.60;44.10
59881;DHT22;45751;51.380;10.326;2023-06-14T00:09:43;17.50;44.20
59881;DHT22;45751;51.380;10.326;2023-06-14T00:12:10;17.50;44.30
59881;DHT22;45751;51.380;10.326;2023-06-14T00:14:37;17.50;44.50
59881;DHT22;45751;51.380;10.326;2023-06-14T00:17:04;17.40;44.60
59881;DHT22;45751;51.380;10.326;2023-06-14T00:19:31;17.40;45.00
59881;DHT22;45751;51.380;10.326;2023-06-14T00:21:59;17.40;45.10
59881;DHT22;45751;51.380;10.326;2023-06-14T00:24:26;17.40;45.20
59881;DHT22;45751;51.380;10.326;2023-06-14T00:26:53;17.30;46.70
59881;DHT22;45751;51.380;10.326;2023-06-14T00:29:22;17.30;45.60
59881;DHT22;45751;51.380;10.326;2023-06-14T00:31:48;17.20;45.70
59881;DHT22;45751;51.380;10.326;2023-06-14T00:34:15;17.20;45.80
59881;DHT22;45751;51.380;10.326;2023-06-14T00:36:42;17.20;45.90
59881;DHT22;45751;51.380;10.326;2023-06-14T00:39:09;17.10;46.30
59881;DHT22;45751;51.380;10.326;2023-06-14T00:41:36;17.00;46.30
59881;DHT22;45751;51.380;10.326;2023-06-14T00:44:05;17.00;46.60
59881;DHT22;45751;51.380;10.326;2023-06-14T00:46:32;16.90;46.80
59881;DHT22;45751;51.380;10.326;2023-06-14T00:49:00;17.00;47.10
59881;DHT22;45751;51.380;10.326;2023-06-14T00:51:27;16.90;47.10
59881;DHT22;45751;51.380;10.326;2023-06-14T00:53:55;16.80;47.10
59881;DHT22;45751;51.380;10.326;2023-06-14T00:56:21;16.80;47.20
59881;DHT22;45751;51.380;10.326;2023-06-14T00:58:50;16.70;47.20
59881;DHT22;45751;51.380;10.326;2023-06-14T01:01:18;16.70;47.40
59881;DHT22;45751;51.380;10.326;2023-06-14T01:03:45;16.60;47.60
59881;DHT22;45751;51.380;10.326;2023-06-14T01:11:50;16.40;48.40
59881;DHT22;45751;51.380;10.326;2023-06-14T01:14:21;16.40;48.70
59881;DHT22;45751;51.380;10.326;2023-06-14T01:16:49;16.30;48.90
59881;DHT22;45751;51.380;10.326;2023-06-14T01:19:20;16.30;49.30
59881;DHT22;45751;51.380;10.326;2023-06-14T01:21:49;16.20;49.70
59881;DHT22;45751;51.380;10.326;2023-06-14T01:24:17;16.20;49.70
59881;DHT22;45751;51.380;10.326;2023-06-14T01:26:55;16.10;49.90
59881;DHT22;45751;51.380;10.326;2023-06-14T01:29:23;16.00;50.40
59881;DHT22;45751;51.380;10.326;2023-06-14T01:31:53;16.00;50.70
59881;DHT22;45751;51.380;10.326;2023-06-14T01:34:20;16.00;51.00
59881;DHT22;45751;51.380;10.326;2023-06-14T01:36:52;15.90;51.20
59881;DHT22;45751;51.380;10.326;2023-06-14T01:39:21;15.90;51.40
59881;DHT22;45751;51.380;10.326;2023-06-14T01:41:49;15.80;51.10
59881;DHT22;45751;51.380;10.326;2023-06-14T01:44:18;15.80;51.90
59881;DHT22;45751;51.380;10.326;2023-06-14T01:46:46;15.70;52.30
59881;DHT22;45751;51.380;10.326;2023-06-14T01:49:13;15.70;52.60
59881;DHT22;45751;51.380;10.326;2023-06-14T01:51:40;15.60;52.90
59881;DHT22;45751;51.380;10.326;2023-06-14T01:54:08;15.60;53.20
59881;DHT22;45751;51.380;10.326;2023-06-14T01:56:35;15.50;53.60
59881;DHT22;45751;51.380;10.326;2023-06-14T01:59:01;15.50;53.80
59881;DHT22;45751;51.380;10.326;2023-06-14T02:01:29;15.50;54.10
59881;DHT22;45751;51.380;10.326;2023-06-14T02:03:56;15.40;54.30
59881;DHT22;45751;51.380;10.326;2023-06-14T02:06:26;15.30;54.50
59881;DHT22;45751;51.380;10.326;2023-06-14T02:08:53;15.30;54.80
59881;DHT22;45751;51.380;10.326;2023-06-14T02:11:20;15.30;55.00
59881;DHT22;45751;51.380;10.326;2023-06-14T02:13:47;15.30;55.20
59881;DHT22;45751;51.380;10.326;2023-06-14T02:16:13;15.20;55.50
59881;DHT22;45751;51.380;10.326;2023-06-14T02:18:41;15.10;55.90
59881;DHT22;45751;51.380;10.326;2023-06-14T02:21:08;15.10;56.30
59881;DHT22;45751;51.380;10.326;2023-06-14T02:23:34;15.10;56.50
59881;DHT22;45751;51.380;10.326;2023-06-14T02:26:01;15.10;56.70
59881;DHT22;45751;51.380;10.326;2023-06-14T02:28:29;15.00;56.90
59881;DHT22;45751;51.380;10.326;2023-06-14T02:30:56;15.10;57.10
59881;DHT22;45751;51.380;10.326;2023-06-14T02:33:23;15.00;57.30
59881;DHT22;45751;51.380;10.326;2023-06-14T02:35:52;15.00;57.50
59881;DHT22;45751;51.380;10.326;2023-06-14T02:38:19;15.00;57.60
59881;DHT22;45751;51.380;10.326;2023-06-14T02:40:47;15.00;57.70
59881;DHT22;45751;51.380;10.326;2023-06-14T02:43:14;15.00;57.80
59881;DHT22;45751;51.380;10.326;2023-06-14T02:45:44;15.00;57.90
59881;DHT22;45751;51.380;10.326;2023-06-14T02:48:11;15.00;58.00
59881;DHT22;45751;51.380;10.326;2023-06-14T02:50:40;15.00;57.90
59881;DHT22;45751;51.380;10.326;2023-06-14T02:53:07;15.00;57.90
59881;DHT22;45751;51.380;10.326;2023-06-14T02:55:35;15.00;58.00
59881;DHT22;45751;51.380;10.326;2023-06-14T02:58:06;14.90;58.70
59881;DHT22;45751;51.380;10.326;2023-06-14T03:00:33;14.90;58.40
59881;DHT22;45751;51.380;10.326;2023-06-14T03:03:02;14.70;58.60
59881;DHT22;45751;51.380;10.326;2023-06-14T03:05:29;14.80;59.10
59881;DHT22;45751;51.380;10.326;2023-06-14T03:07:56;14.70;59.10
59881;DHT22;45751;51.380;10.326;2023-06-14T03:10:24;14.70;59.40
59881;DHT22;45751;51.380;10.326;2023-06-14T03:12:52;14.60;59.40
59881;DHT22;45751;51.380;10.326;2023-06-14T03:15:20;14.60;59.70
59881;DHT22;45751;51.380;10.326;2023-06-14T03:17:51;14.60;59.80
59881;DHT22;45751;51.380;10.326;2023-06-14T03:20:20;14.60;59.90
59881;DHT22;45751;51.380;10.326;2023-06-14T03:22:47;14.60;60.00
59881;DHT22;45751;51.380;10.326;2023-06-14T03:25:15;14.60;60.20
59881;DHT22;45751;51.380;10.326;2023-06-14T03:27:44;14.50;60.30
59881;DHT22;45751;51.380;10.326;2023-06-14T03:30:11;14.50;60.60
59881;DHT22;45751;51.380;10.326;2023-06-14T03:32:40;14.40;60.90
59881;DHT22;45751;51.380;10.326;2023-06-14T03:35:08;14.30;61.00
59881;DHT22;45751;51.380;10.326;2023-06-14T03:37:35;14.30;61.40
59881;DHT22;45751;51.380;10.326;2023-06-14T03:40:03;14.30;61.70
59881;DHT22;45751;51.380;10.326;2023-06-14T03:42:38;14.30;62.00
59881;DHT22;45751;51.380;10.326;2023-06-14T03:45:06;14.20;62.10
59881;DHT22;45751;51.380;10.326;2023-06-14T03:47:34;14.30;62.30
59881;DHT22;45751;51.380;10.326;2023-06-14T03:50:03;14.30;62.30
59881;DHT22;45751;51.380;10.326;2023-06-14T03:52:30;14.30;62.50
59881;DHT22;45751;51.380;10.326;2023-06-14T03:54:58;14.30;62.50
59881;DHT22;45751;51.380;10.326;2023-06-14T03:57:31;14.30;62.70
59881;DHT22;45751;51.380;10.326;2023-06-14T03:59:58;14.30;62.90
59881;DHT22;45751;51.380;10.326;2023-06-14T04:02:26;14.30;62.90
59881;DHT22;45751;51.380;10.326;2023-06-14T04:04:55;14.40;62.90
59881;DHT22;45751;51.380;10.326;2023-06-14T04:07:22;14.40;62.90
59881;DHT22;45751;51.380;10.326;2023-06-14T04:09:50;14.40;63.00
59881;DHT22;45751;51.380;10.326;2023-06-14T04:12:17;14.40;63.00
59881;DHT22;45751;51.380;10.326;2023-06-14T04:14:44;14.30;63.10
59881;DHT22;45751;51.380;10.326;2023-06-14T04:17:11;14.30;63.10
59881;DHT22;45751;51.380;10.326;2023-06-14T04:19:42;14.30;63.30
59881;DHT22;45751;51.380;10.326;2023-06-14T04:22:09;14.30;63.30
59881;DHT22;45751;51.380;10.326;2023-06-14T04:24:38;14.30;63.90
59881;DHT22;45751;51.380;10.326;2023-06-14T04:27:05;14.10;64.00
59881;DHT22;45751;51.380;10.326;2023-06-14T04:29:35;14.30;64.20
59881;DHT22;45751;51.380;10.326;2023-06-14T04:32:06;14.20;64.40
59881;DHT22;45751;51.380;10.326;2023-06-14T04:34:37;14.20;64.70
59881;DHT22;45751;51.380;10.326;2023-06-14T04:37:07;14.20;65.10
59881;DHT22;45751;51.380;10.326;2023-06-14T04:39:36;14.20;65.20
59881;DHT22;45751;51.380;10.326;2023-06-14T04:42:04;14.10;65.40
59881;DHT22;45751;51.380;10.326;2023-06-14T04:44:34;14.10;65.80
59881;DHT22;45751;51.380;10.326;2023-06-14T04:47:02;14.10;65.90
59881;DHT22;45751;51.380;10.326;2023-06-14T04:49:30;14.00;66.00
59881;DHT22;45751;51.380;10.326;2023-06-14T04:51:59;14.00;66.50
59881;DHT22;45751;51.380;10.326;2023-06-14T04:54:33;14.00;67.00
59881;DHT22;45751;51.380;10.326;2023-06-14T04:57:08;14.00;66.80
59881;DHT22;45751;51.380;10.326;2023-06-14T04:59:36;14.00;67.20
59881;DHT22;45751;51.380;10.326;2023-06-14T05:02:03;14.00;68.60
59881;DHT22;45751;51.380;10.326;2023-06-14T05:04:30;14.00;67.90
59881;DHT22;45751;51.380;10.326;2023-06-14T05:06:58;14.00;68.20
59881;DHT22;45751;51.380;10.326;2023-06-14T05:09:25;14.00;68.70
59881;DHT22;45751;51.380;10.326;2023-06-14T05:11:52;13.90;68.70
59881;DHT22;45751;51.380;10.326;2023-06-14T05:14:21;14.00;69.40
59881;DHT22;45751;51.380;10.326;2023-06-14T05:16:50;14.00;69.70
59881;DHT22;45751;51.380;10.326;2023-06-14T05:19:17;14.10;69.90
59881;DHT22;45751;51.380;10.326;2023-06-14T05:21:45;14.10;70.10
59881;DHT22;45751;51.380;10.326;2023-06-14T05:24:13;14.10;70.30
59881;DHT22;45751;51.380;10.326;2023-06-14T05:26:40;14.20;70.70
59881;DHT22;45751;51.380;10.326;2023-06-14T05:29:07;14.10;71.00
59881;DHT22;45751;51.380;10.326;2023-06-14T05:31:34;14.20;71.30
59881;DHT22;45751;51.380;10.326;2023-06-14T05:34:01;14.20;71.20
59881;DHT22;45751;51.380;10.326;2023-06-14T05:36:28;14.20;71.50
59881;DHT22;45751;51.380;10.326;2023-06-14T05:38:55;14.10;71.80
59881;DHT22;45751;51.380;10.326;2023-06-14T05:41:27;14.30;72.20
59881;DHT22;45751;51.380;10.326;2023-06-14T05:43:57;14.30;72.40
59881;DHT22;45751;51.380;10.326;2023-06-14T05:46:24;14.40;72.60
59881;DHT22;45751;51.380;10.326;2023-06-14T05:48:53;14.40;72.60
59881;DHT22;45751;51.380;10.326;2023-06-14T05:51:21;14.50;72.30
59881;DHT22;45751;51.380;10.326;2023-06-14T05:53:48;14.50;71.80
59881;DHT22;45751;51.380;10.326;2023-06-14T05:56:16;14.50;71.60
59881;DHT22;45751;51.380;10.326;2023-06-14T05:58:45;14.50;71.40
59881;DHT22;45751;51.380;10.326;2023-06-14T06:01:12;14.50;71.20
59881;DHT22;45751;51.380;10.326;2023-06-14T06:03:41;14.50;71.40
59881;DHT22;45751;51.380;10.326;2023-06-14T06:06:08;14.60;71.60
59881;DHT22;45751;51.380;10.326;2023-06-14T06:08:35;14.60;71.80
59881;DHT22;45751;51.380;10.326;2023-06-14T06:11:02;14.60;71.60
59881;DHT22;45751;51.380;10.326;2023-06-14T06:13:29;14.60;71.50
59881;DHT22;45751;51.380;10.326;2023-06-14T06:15:56;14.60;72.00
59881;DHT22;45751;51.380;10.326;2023-06-14T06:18:23;14.60;71.90
59881;DHT22;45751;51.380;10.326;2023-06-14T06:20:50;14.70;72.00
59881;DHT22;45751;51.380;10.326;2023-06-14T06:23:17;14.70;71.70
59881;DHT22;45751;51.380;10.326;2023-06-14T06:25:44;14.70;71.30
59881;DHT22;45751;51.380;10.326;2023-06-14T06:28:10;14.70;71.30
59881;DHT22;45751;51.380;10.326;2023-06-14T06:30:38;14.70;71.50
59881;DHT22;45751;51.380;10.326;2023-06-14T06:33:05;14.70;71.50
59881;DHT22;45751;51.380;10.326;2023-06-14T06:35:32;14.70;71.70
59881;DHT22;45751;51.380;10.326;2023-06-14T06:38:00;14.80;71.70
59881;DHT22;45751;51.380;10.326;2023-06-14T06:40:27;14.70;71.40
59881;DHT22;45751;51.380;10.326;2023-06-14T06:42:55;14.80;71.20
59881;DHT22;45751;51.380;10.326;2023-06-14T06:45:26;14.90;71.20
59881;DHT22;45751;51.380;10.326;2023-06-14T06:47:52;14.90;70.70
59881;DHT22;45751;51.380;10.326;2023-06-14T06:50:19;15.00;71.50
59881;DHT22;45751;51.380;10.326;2023-06-14T06:52:47;15.00;71.60
59881;DHT22;45751;51.380;10.326;2023-06-14T06:55:14;15.00;71.10
59881;DHT22;45751;51.380;10.326;2023-06-14T06:57:41;15.10;70.30
59881;DHT22;45751;51.380;10.326;2023-06-14T07:00:09;15.10;69.60
59881;DHT22;45751;51.380;10.326;2023-06-14T07:02:36;15.10;70.20
59881;DHT22;45751;51.380;10.326;2023-06-14T07:05:04;15.00;70.20
59881;DHT22;45751;51.380;10.326;2023-06-14T07:07:31;15.20;69.90
59881;DHT22;45751;51.380;10.326;2023-06-14T07:09:58;15.30;69.70
59881;DHT22;45751;51.380;10.326;2023-06-14T07:12:26;15.30;69.30
59881;DHT22;45751;51.380;10.326;2023-06-14T07:14:53;15.40;69.20
59881;DHT22;45751;51.380;10.326;2023-06-14T07:17:20;15.40;68.60
59881;DHT22;45751;51.380;10.326;2023-06-14T07:19:47;15.40;68.50
59881;DHT22;45751;51.380;10.326;2023-06-14T07:22:15;15.50;68.20
59881;DHT22;45751;51.380;10.326;2023-06-14T07:24:42;15.50;67.60
59881;DHT22;45751;51.380;10.326;2023-06-14T07:27:09;15.50;67.50
59881;DHT22;45751;51.380;10.326;2023-06-14T07:29:41;15.60;67.20
59881;DHT22;45751;51.380;10.326;2023-06-14T07:32:07;15.60;67.30
59881;DHT22;45751;51.380;10.326;2023-06-14T07:34:34;15.70;67.00
59881;DHT22;45751;51.380;10.326;2023-06-14T07:37:01;15.70;67.10
59881;DHT22;45751;51.380;10.326;2023-06-14T07:39:29;15.80;66.80
59881;DHT22;45751;51.380;10.326;2023-06-14T07:41:56;15.80;66.60
59881;DHT22;45751;51.380;10.326;2023-06-14T07:44:23;15.80;66.60
59881;DHT22;45751;51.380;10.326;2023-06-14T07:46:50;15.90;67.30
59881;DHT22;45751;51.380;10.326;2023-06-14T07:49:17;16.00;66.00
59881;DHT22;45751;51.380;10.326;2023-06-14T07:51:44;16.00;66.10
59881;DHT22;45751;51.380;10.326;2023-06-14T07:54:11;16.00;66.20
59881;DHT22;45751;51.380;10.326;2023-06-14T07:56:38;16.10;65.50
59881;DHT22;45751;51.380;10.326;2023-06-14T07:59:08;16.20;64.80
59881;DHT22;45751;51.380;10.326;2023-06-14T08:01:35;16.20;64.50
59881;DHT22;45751;51.380;10.326;2023-06-14T08:04:02;16.30;64.30
59881;DHT22;45751;51.380;10.326;2023-06-14T08:06:29;16.30;63.70
59881;DHT22;45751;51.380;10.326;2023-06-14T08:08:57;16.40;63.40
59881;DHT22;45751;51.380;10.326;2023-06-14T08:11:24;16.50;63.40
59881;DHT22;45751;51.380;10.326;2023-06-14T08:13:51;16.50;62.80
59881;DHT22;45751;51.380;10.326;2023-06-14T08:16:18;16.50;61.90
59881;DHT22;45751;51.380;10.326;2023-06-14T08:18:45;16.60;61.60
59881;DHT22;45751;51.380;10.326;2023-06-14T08:21:12;16.50;61.20
59881;DHT22;45751;51.380;10.326;2023-06-14T08:23:41;16.70;61.00
59881;DHT22;45751;51.380;10.326;2023-06-14T08:26:11;16.70;61.50
59881;DHT22;45751;51.380;10.326;2023-06-14T08:28:38;16.70;61.60
59881;DHT22;45751;51.380;10.326;2023-06-14T08:31:05;16.80;61.10
59881;DHT22;45751;51.380;10.326;2023-06-14T08:33:32;16.80;60.10
59881;DHT22;45751;51.380;10.326;2023-06-14T08:36:02;16.80;60.00
59881;DHT22;45751;51.380;10.326;2023-06-14T08:38:29;16.80;59.60
59881;DHT22;45751;51.380;10.326;2023-06-14T08:41:01;16.80;60.10
59881;DHT22;45751;51.380;10.326;2023-06-14T08:43:28;16.90;60.20
59881;DHT22;45751;51.380;10.326;2023-06-14T08:45:58;16.90;60.20
59881;DHT22;45751;51.380;10.326;2023-06-14T08:48:27;16.90;60.00
59881;DHT22;45751;51.380;10.326;2023-06-14T08:50:55;17.00;59.60
59881;DHT22;45751;51.380;10.326;2023-06-14T08:53:32;17.00;59.10
59881;DHT22;45751;51.380;10.326;2023-06-14T08:56:04;17.10;59.70
59881;DHT22;45751;51.380;10.326;2023-06-14T08:58:32;17.10;59.40
59881;DHT22;45751;51.380;10.326;2023-06-14T09:01:04;17.20;59.00
59881;DHT22;45751;51.380;10.326;2023-06-14T09:03:32;17.30;58.80
59881;DHT22;45751;51.380;10.326;2023-06-14T09:06:00;17.30;58.30
59881;DHT22;45751;51.380;10.326;2023-06-14T09:08:28;17.40;58.30
59881;DHT22;45751;51.380;10.326;2023-06-14T09:10:58;17.50;57.90
59881;DHT22;45751;51.380;10.326;2023-06-14T09:13:26;17.50;57.40
59881;DHT22;45751;51.380;10.326;2023-06-14T09:15:57;17.50;56.90
59881;DHT22;45751;51.380;10.326;2023-06-14T09:18:37;17.60;56.40
59881;DHT22;45751;51.380;10.326;2023-06-14T09:21:08;17.60;56.60
59881;DHT22;45751;51.380;10.326;2023-06-14T09:23:38;17.70;56.80
59881;DHT22;45751;51.380;10.326;2023-06-14T09:26:11;17.70;56.80
59881;DHT22;45751;51.380;10.326;2023-06-14T09:28:46;17.80;55.90
59881;DHT22;45751;51.380;10.326;2023-06-14T09:31:18;17.80;55.40
59881;DHT22;45751;51.380;10.326;2023-06-14T09:33:46;17.80;55.60
59881;DHT22;45751;51.380;10.326;2023-06-14T09:36:25;17.90;55.10
59881;DHT22;45751;51.380;10.326;2023-06-14T09:38:57;17.90;54.10
59881;DHT22;45751;51.380;10.326;2023-06-14T09:41:38;18.00;55.00
59881;DHT22;45751;51.380;10.326;2023-06-14T09:44:07;18.00;54.00
59881;DHT22;45751;51.380;10.326;2023-06-14T09:46:41;18.00;53.50
59881;DHT22;45751;51.380;10.326;2023-06-14T09:49:08;18.00;53.90
59881;DHT22;45751;51.380;10.326;2023-06-14T09:51:43;18.10;53.80
59881;DHT22;45751;51.380;10.326;2023-06-14T09:54:15;18.10;53.20
59881;DHT22;45751;51.380;10.326;2023-06-14T09:56:47;18.20;53.80
59881;DHT22;45751;51.380;10.326;2023-06-14T09:59:19;18.30;53.70
59881;DHT22;45751;51.380;10.326;2023-06-14T10:01:48;18.30;53.20
59881;DHT22;45751;51.380;10.326;2023-06-14T10:04:22;18.40;52.70
59881;DHT22;45751;51.380;10.326;2023-06-14T10:06:50;18.40;52.10
59881;DHT22;45751;51.380;10.326;2023-06-14T10:09:19;18.50;51.70
59881;DHT22;45751;51.380;10.326;2023-06-14T10:11:46;18.50;51.80
59881;DHT22;45751;51.380;10.326;2023-06-14T10:14:13;18.50;51.90
59881;DHT22;45751;51.380;10.326;2023-06-14T10:16:42;18.60;52.60
59881;DHT22;45751;51.380;10.326;2023-06-14T10:19:25;18.70;52.00
59881;DHT22;45751;51.380;10.326;2023-06-14T10:22:14;18.70;52.00
59881;DHT22;45751;51.380;10.326;2023-06-14T10:24:44;18.70;50.90
59881;DHT22;45751;51.380;10.326;2023-06-14T10:27:14;18.80;51.10
59881;DHT22;45751;51.380;10.326;2023-06-14T10:32:20;18.90;50.20
59881;DHT22;45751;51.380;10.326;2023-06-14T10:34:54;18.90;49.50
59881;DHT22;45751;51.380;10.326;2023-06-14T10:37:22;18.90;49.10
59881;DHT22;45751;51.380;10.326;2023-06-14T10:39:49;19.00;49.40
59881;DHT22;45751;51.380;10.326;2023-06-14T10:42:16;19.10;49.50
59881;DHT22;45751;51.380;10.326;2023-06-14T10:44:49;19.10;49.90
59881;DHT22;45751;51.380;10.326;2023-06-14T10:50:14;19.20;49.60
59881;DHT22;45751;51.380;10.326;2023-06-14T10:52:43;19.30;49.30
59881;DHT22;45751;51.380;10.326;2023-06-14T10:55:19;19.30;48.80
59881;DHT22;45751;51.380;10.326;2023-06-14T10:57:51;19.40;48.30
59881;DHT22;45751;51.380;10.326;2023-06-14T11:00:25;19.40;47.80
59881;DHT22;45751;51.380;10.326;2023-06-14T11:05:56;19.60;48.30
59881;DHT22;45751;51.380;10.326;2023-06-14T11:10:54;19.70;47.80
59881;DHT22;45751;51.380;10.326;2023-06-14T11:13:26;19.80;48.10
59881;DHT22;45751;51.380;10.326;2023-06-14T11:15:56;19.90;47.90
59881;DHT22;45751;51.380;10.326;2023-06-14T11:18:24;19.90;47.00
59881;DHT22;45751;51.380;10.326;2023-06-14T11:20:51;20.00;47.70
59881;DHT22;45751;51.380;10.326;2023-06-14T11:23:18;20.10;47.30
59881;DHT22;45751;51.380;10.326;2023-06-14T11:25:52;20.10;46.50
59881;DHT22;45751;51.380;10.326;2023-06-14T11:28:19;20.20;45.50
59881;DHT22;45751;51.380;10.326;2023-06-14T11:31:01;20.30;45.50
59881;DHT22;45751;51.380;10.326;2023-06-14T11:33:28;20.50;44.90
59881;DHT22;45751;51.380;10.326;2023-06-14T11:35:56;20.60;45.10
59881;DHT22;45751;51.380;10.326;2023-06-14T11:38:22;20.70;44.70
59881;DHT22;45751;51.380;10.326;2023-06-14T11:40:49;20.80;45.50
59881;DHT22;45751;51.380;10.326;2023-06-14T11:43:16;20.90;44.20
59881;DHT22;45751;51.380;10.326;2023-06-14T11:45:48;21.00;43.20
59881;DHT22;45751;51.380;10.326;2023-06-14T11:48:40;21.00;42.40
59881;DHT22;45751;51.380;10.326;2023-06-14T11:51:07;21.00;42.80
59881;DHT22;45751;51.380;10.326;2023-06-14T11:53:34;21.10;44.70
59881;DHT22;45751;51.380;10.326;2023-06-14T11:56:02;21.10;43.60
59881;DHT22;45751;51.380;10.326;2023-06-14T11:58:29;21.20;43.90
59881;DHT22;45751;51.380;10.326;2023-06-14T12:00:57;21.30;43.50
59881;DHT22;45751;51.380;10.326;2023-06-14T12:03:26;21.40;42.20
59881;DHT22;45751;51.380;10.326;2023-06-14T12:06:08;21.50;42.30
59881;DHT22;45751;51.380;10.326;2023-06-14T12:08:37;21.60;41.70
59881;DHT22;45751;51.380;10.326;2023-06-14T12:11:14;21.60;41.50
59881;DHT22;45751;51.380;10.326;2023-06-14T12:13:42;21.70;40.90
59881;DHT22;45751;51.380;10.326;2023-06-14T12:16:11;21.80;41.10
59881;DHT22;45751;51.380;10.326;2023-06-14T12:18:39;21.90;42.20
59881;DHT22;45751;51.380;10.326;2023-06-14T12:21:09;22.10;41.80
59881;DHT22;45751;51.380;10.326;2023-06-14T12:23:43;22.30;41.50
59881;DHT22;45751;51.380;10.326;2023-06-14T12:26:15;22.50;41.40
59881;DHT22;45751;51.380;10.326;2023-06-14T12:28:44;22.70;40.40
59881;DHT22;45751;51.380;10.326;2023-06-14T12:31:12;22.90;40.10
59881;DHT22;45751;51.380;10.326;2023-06-14T12:33:40;22.90;38.80
59881;DHT22;45751;51.380;10.326;2023-06-14T12:36:09;23.00;38.70
59881;DHT22;45751;51.380;10.326;2023-06-14T12:38:37;23.10;38.60
59881;DHT22;45751;51.380;10.326;2023-06-14T12:41:04;23.30;37.90
59881;DHT22;45751;51.380;10.326;2023-06-14T12:43:31;23.30;37.70
59881;DHT22;45751;51.380;10.326;2023-06-14T12:45:58;23.30;37.60
59881;DHT22;45751;51.380;10.326;2023-06-14T12:48:25;23.30;37.70
59881;DHT22;45751;51.380;10.326;2023-06-14T12:50:54;23.20;37.60
59881;DHT22;45751;51.380;10.326;2023-06-14T12:53:21;23.10;37.80
59881;DHT22;45751;51.380;10.326;2023-06-14T12:55:48;23.00;37.70
59881;DHT22;45751;51.380;10.326;2023-06-14T12:58:14;22.90;37.50
59881;DHT22;45751;51.380;10.326;2023-06-14T13:00:43;22.70;37.90
59881;DHT22;45751;51.380;10.326;2023-06-14T13:03:11;22.70;38.70
59881;DHT22;45751;51.380;10.326;2023-06-14T13:05:38;22.70;38.10
59881;DHT22;45751;51.380;10.326;2023-06-14T13:08:08;22.80;38.60
59881;DHT22;45751;51.380;10.326;2023-06-14T13:10:35;22.90;38.20
59881;DHT22;45751;51.380;10.326;2023-06-14T13:13:02;22.90;37.80
59881;DHT22;45751;51.380;10.326;2023-06-14T13:15:29;22.90;38.60
59881;DHT22;45751;51.380;10.326;2023-06-14T13:17:56;22.90;38.40
59881;DHT22;45751;51.380;10.326;2023-06-14T13:20:23;22.90;38.20
59881;DHT22;45751;51.380;10.326;2023-06-14T13:22:51;22.80;38.70
59881;DHT22;45751;51.380;10.326;2023-06-14T13:25:17;22.80;39.00
59881;DHT22;45751;51.380;10.326;2023-06-14T13:27:44;22.70;39.20
59881;DHT22;45751;51.380;10.326;2023-06-14T13:30:12;22.80;39.30
59881;DHT22;45751;51.380;10.326;2023-06-14T13:32:39;22.80;39.30
59881;DHT22;45751;51.380;10.326;2023-06-14T13:35:06;22.80;39.30
59881;DHT22;45751;51.380;10.326;2023-06-14T13:37:33;22.90;39.10
59881;DHT22;45751;51.380;10.326;2023-06-14T13:40:00;23.00;39.10
59881;DHT22;45751;51.380;10.326;2023-06-14T13:42:28;23.10;38.80
59881;DHT22;45751;51.380;10.326;2023-06-14T13:44:56;23.20;38.50
59881;DHT22;45751;51.380;10.326;2023-06-14T13:47:23;23.30;38.40
59881;DHT22;45751;51.380;10.326;2023-06-14T13:49:50;23.40;38.00
59881;DHT22;45751;51.380;10.326;2023-06-14T13:52:17;23.40;38.00
59881;DHT22;45751;51.380;10.326;2023-06-14T13:54:44;23.30;37.70
59881;DHT22;45751;51.380;10.326;2023-06-14T13:57:13;23.30;36.80
59881;DHT22;45751;51.380;10.326;2023-06-14T13:59:41;23.10;37.30
59881;DHT22;45751;51.380;10.326;2023-06-14T14:02:08;23.10;37.70
59881;DHT22;45751;51.380;10.326;2023-06-14T14:04:35;23.00;38.30
59881;DHT22;45751;51.380;10.326;2023-06-14T14:07:03;23.10;38.80
59881;DHT22;45751;51.380;10.326;2023-06-14T14:09:30;23.30;39.20
59881;DHT22;45751;51.380;10.326;2023-06-14T14:11:58;23.40;38.60
59881;DHT22;45751;51.380;10.326;2023-06-14T14:14:25;23.50;38.50
59881;DHT22;45751;51.380;10.326;2023-06-14T14:16:52;23.50;38.20
59881;DHT22;45751;51.380;10.326;2023-06-14T14:19:21;23.50;38.10
59881;DHT22;45751;51.380;10.326;2023-06-14T14:21:48;23.40;38.20
59881;DHT22;45751;51.380;10.326;2023-06-14T14:24:15;23.50;38.70
59881;DHT22;45751;51.380;10.326;2023-06-14T14:26:42;23.60;38.90
59881;DHT22;45751;51.380;10.326;2023-06-14T14:29:09;23.70;38.30
59881;DHT22;45751;51.380;10.326;2023-06-14T14:31:38;23.80;37.60
59881;DHT22;45751;51.380;10.326;2023-06-14T14:34:05;24.00;38.70
59881;DHT22;45751;51.380;10.326;2023-06-14T14:36:32;24.20;38.60
59881;DHT22;45751;51.380;10.326;2023-06-14T14:39:01;24.40;38.10
59881;DHT22;45751;51.380;10.326;2023-06-14T14:41:27;24.40;37.30
59881;DHT22;45751;51.380;10.326;2023-06-14T14:43:54;24.40;36.60
59881;DHT22;45751;51.380;10.326;2023-06-14T14:46:21;24.40;37.00
59881;DHT22;45751;51.380;10.326;2023-06-14T14:48:48;24.30;36.60
59881;DHT22;45751;51.380;10.326;2023-06-14T14:51:15;24.20;36.40
59881;DHT22;45751;51.380;10.326;2023-06-14T14:53:42;24.20;36.80
59881;DHT22;45751;51.380;10.326;2023-06-14T14:56:09;24.10;37.50
59881;DHT22;45751;51.380;10.326;2023-06-14T14:58:36;24.00;37.20
59881;DHT22;45751;51.380;10.326;2023-06-14T15:01:03;24.00;37.30
59881;DHT22;45751;51.380;10.326;2023-06-14T15:03:32;23.90;37.00
59881;DHT22;45751;51.380;10.326;2023-06-14T15:06:19;23.90;37.00
59881;DHT22;45751;51.380;10.326;2023-06-14T15:08:46;23.80;37.50
59881;DHT22;45751;51.380;10.326;2023-06-14T15:11:13;23.70;38.20
59881;DHT22;45751;51.380;10.326;2023-06-14T15:13:40;23.70;38.70
59881;DHT22;45751;51.380;10.326;2023-06-14T15:16:07;23.70;38.70
59881;DHT22;45751;51.380;10.326;2023-06-14T15:18:34;23.70;38.80
59881;DHT22;45751;51.380;10.326;2023-06-14T15:21:01;23.70;38.30
59881;DHT22;45751;51.380;10.326;2023-06-14T15:23:28;23.80;38.20
59881;DHT22;45751;51.380;10.326;2023-06-14T15:25:55;23.90;37.70
59881;DHT22;45751;51.380;10.326;2023-06-14T15:28:22;24.00;37.60
59881;DHT22;45751;51.380;10.326;2023-06-14T15:30:51;24.00;37.20
59881;DHT22;45751;51.380;10.326;2023-06-14T15:33:18;24.10;37.10
59881;DHT22;45751;51.380;10.326;2023-06-14T15:35:45;24.10;36.70
59881;DHT22;45751;51.380;10.326;2023-06-14T15:38:12;24.10;36.70
59881;DHT22;45751;51.380;10.326;2023-06-14T15:40:39;24.00;37.10